sensor_id;sensor_type;location;lat;lon;timestamp;P1;durP1;ratioP1;P2;durP2;ratioP2
18917;SDS011;9591;52.742;13.650;2024-03-08T00:00:31;28.27;;;11.37;;
18917;SDS011;9591;52.742;13.650;2024-03-08T00:03:26;31.03;;;11.40;;
18917;SDS011;9591;52.742;13.650;2024-03-08T00:06:25;26.57;;;10.83;;
18917;SDS011;9591;52.742;13.650;2024-03-08T00:09:24;23.93;;;10.40;;
18917;SDS011;9591;52.742;13.650;2024-03-08T00:12:12;34.63;;;11.53;;
18917;SDS011;9591;52.742;13.650;2024-03-08T00:15:02;23.73;;;10.37;;
18917;SDS011;9591;52.742;13.650;2024-03-08T00:17:50;25.50;;;10.83;;
18917;SDS011;9591;52.742;13.650;2024-03-08T00:20:41;29.53;;;11.17;;
18917;SDS011;9591;52.742;13.650;2024-03-08T00:23:29;22.77;;;10.80;;
18917;SDS011;9591;52.742;13.650;2024-03-08T00:26:19;27.90;;;10.47;;
18917;SDS011;9591;52.742;13.650;2024-03-08T00:29:11;22.03;;;10.23;;
18917;SDS011;9591;52.742;13.650;2024-03-08T00:35:43;22.23;;;10.43;;
18917;SDS011;9591;52.742;13.650;2024-03-08T00:38:33;22.97;;;9.17;;
18917;SDS011;9591;52.742;13.650;2024-03-08T00:41:22;29.03;;;11.17;;
18917;SDS011;9591;52.742;13.650;2024-03-08T00:44:14;25.63;;;11.30;;
18917;SDS011;9591;52.742;13.650;2024-03-08T00:47:17;24.80;;;10.07;;
18917;SDS011;9591;52.742;13.650;2024-03-08T00:50:06;27.73;;;10.23;;
18917;SDS011;9591;52.742;13.650;2024-03-08T00:52:59;26.10;;;10.53;;
18917;SDS011;9591;52.742;13.650;2024-03-08T00:55:46;23.17;;;10.30;;
18917;SDS011;9591;52.742;13.650;2024-03-08T00:58:35;25.90;;;10.87;;
18917;SDS011;9591;52.742;13.650;2024-03-08T01:01:25;22.17;;;8.80;;
18917;SDS011;9591;52.742;13.650;2024-03-08T01:04:15;19.13;;;9.43;;
18917;SDS011;9591;52.742;13.650;2024-03-08T01:07:04;27.37;;;10.33;;
18917;SDS011;9591;52.742;13.650;2024-03-08T01:09:55;27.53;;;10.53;;
18917;SDS011;9591;52.742;13.650;2024-03-08T01:12:46;22.70;;;9.77;;
18917;SDS011;9591;52.742;13.650;2024-03-08T01:15:36;30.27;;;11.27;;
18917;SDS011;9591;52.742;13.650;2024-03-08T01:18:32;24.67;;;9.97;;
18917;SDS011;9591;52.742;13.650;2024-03-08T01:21:19;24.13;;;9.33;;
18917;SDS011;9591;52.742;13.650;2024-03-08T01:24:14;27.57;;;10.10;;
18917;SDS011;9591;52.742;13.650;2024-03-08T01:27:03;26.40;;;10.70;;
18917;SDS011;9591;52.742;13.650;2024-03-08T01:29:55;21.90;;;10.43;;
18917;SDS011;9591;52.742;13.650;2024-03-08T01:32:45;22.17;;;9.27;;
18917;SDS011;9591;52.742;13.650;2024-03-08T01:35:32;22.50;;;10.47;;
18917;SDS011;9591;52.742;13.650;2024-03-08T01:38:20;24.97;;;10.40;;
18917;SDS011;9591;52.742;13.650;2024-03-08T01:41:12;23.10;;;10.53;;
18917;SDS011;9591;52.742;13.650;2024-03-08T01:44:10;25.53;;;10.77;;
18917;SDS011;9591;52.742;13.650;2024-03-08T01:47:01;22.13;;;10.17;;
18917;SDS011;9591;52.742;13.650;2024-03-08T01:49:48;24.07;;;9.77;;
18917;SDS011;9591;52.742;13.650;2024-03-08T01:52:37;22.53;;;9.60;;
18917;SDS011;9591;52.742;13.650;2024-03-08T01:55:25;23.97;;;9.40;;
18917;SDS011;9591;52.742;13.650;2024-03-08T01:58:12;27.33;;;10.57;;
18917;SDS011;9591;52.742;13.650;2024-03-08T02:01:09;23.97;;;9.83;;
18917;SDS011;9591;52.742;13.650;2024-03-08T02:04:01;28.93;;;11.33;;
18917;SDS011;9591;52.742;13.650;2024-03-08T02:06:58;29.63;;;9.37;;
18917;SDS011;9591;52.742;13.650;2024-03-08T02:09:47;18.67;;;8.90;;
18917;SDS011;9591;52.742;13.650;2024-03-08T02:12:36;23.27;;;9.70;;
18917;SDS011;9591;52.742;13.650;2024-03-08T02:15:23;22.30;;;9.73;;
18917;SDS011;9591;52.742;13.650;2024-03-08T02:18:12;25.30;;;10.90;;
18917;SDS011;9591;52.742;13.650;2024-03-08T02:21:04;26.23;;;10.20;;
18917;SDS011;9591;52.742;13.650;2024-03-08T02:23:54;26.17;;;9.47;;
18917;SDS011;9591;52.742;13.650;2024-03-08T02:26:44;29.77;;;10.53;;
18917;SDS011;9591;52.742;13.650;2024-03-08T02:29:33;24.43;;;10.40;;
18917;SDS011;9591;52.742;13.650;2024-03-08T02:32:20;23.93;;;10.67;;
18917;SDS011;9591;52.742;13.650;2024-03-08T02:35:09;26.77;;;10.77;;
18917;SDS011;9591;52.742;13.650;2024-03-08T02:37:58;26.00;;;11.67;;
18917;SDS011;9591;52.742;13.650;2024-03-08T02:40:46;24.80;;;10.83;;
18917;SDS011;9591;52.742;13.650;2024-03-08T02:43:36;26.40;;;11.17;;
18917;SDS011;9591;52.742;13.650;2024-03-08T02:46:23;30.20;;;10.77;;
18917;SDS011;9591;52.742;13.650;2024-03-08T02:49:10;26.40;;;10.17;;
18917;SDS011;9591;52.742;13.650;2024-03-08T02:52:00;23.53;;;11.00;;
18917;SDS011;9591;52.742;13.650;2024-03-08T02:54:54;29.30;;;10.90;;
18917;SDS011;9591;52.742;13.650;2024-03-08T02:57:43;26.57;;;10.80;;
18917;SDS011;9591;52.742;13.650;2024-03-08T03:00:34;25.93;;;10.77;;
18917;SDS011;9591;52.742;13.650;2024-03-08T03:03:24;26.07;;;11.43;;
18917;SDS011;9591;52.742;13.650;2024-03-08T03:06:13;33.53;;;11.47;;
18917;SDS011;9591;52.742;13.650;2024-03-08T03:09:03;27.90;;;11.33;;
18917;SDS011;9591;52.742;13.650;2024-03-08T03:11:54;27.00;;;10.93;;
18917;SDS011;9591;52.742;13.650;2024-03-08T03:14:45;25.07;;;10.10;;
18917;SDS011;9591;52.742;13.650;2024-03-08T03:17:33;27.70;;;10.63;;
18917;SDS011;9591;52.742;13.650;2024-03-08T03:20:20;29.30;;;11.40;;
18917;SDS011;9591;52.742;13.650;2024-03-08T03:23:12;21.20;;;11.10;;
18917;SDS011;9591;52.742;13.650;2024-03-08T03:26:06;30.03;;;12.37;;
18917;SDS011;9591;52.742;13.650;2024-03-08T03:28:57;25.30;;;10.87;;
18917;SDS011;9591;52.742;13.650;2024-03-08T03:31:47;25.00;;;11.57;;
18917;SDS011;9591;52.742;13.650;2024-03-08T03:34:36;23.53;;;10.50;;
18917;SDS011;9591;52.742;13.650;2024-03-08T03:37:23;30.97;;;12.30;;
18917;SDS011;9591;52.742;13.650;2024-03-08T03:40:10;30.83;;;11.47;;
18917;SDS011;9591;52.742;13.650;2024-03-08T03:43:02;30.27;;;10.83;;
18917;SDS011;9591;52.742;13.650;2024-03-08T03:45:56;26.57;;;11.77;;
18917;SDS011;9591;52.742;13.650;2024-03-08T03:48:45;22.23;;;10.63;;
18917;SDS011;9591;52.742;13.650;2024-03-08T03:51:32;26.63;;;10.17;;
18917;SDS011;9591;52.742;13.650;2024-03-08T03:54:19;22.50;;;10.43;;
18917;SDS011;9591;52.742;13.650;2024-03-08T03:57:06;25.43;;;10.57;;
18917;SDS011;9591;52.742;13.650;2024-03-08T03:59:54;25.23;;;11.47;;
18917;SDS011;9591;52.742;13.650;2024-03-08T04:05:57;26.33;;;11.03;;
18917;SDS011;9591;52.742;13.650;2024-03-08T04:08:45;30.27;;;12.00;;
18917;SDS011;9591;52.742;13.650;2024-03-08T04:11:32;27.73;;;11.23;;
18917;SDS011;9591;52.742;13.650;2024-03-08T04:14:25;21.33;;;9.70;;
18917;SDS011;9591;52.742;13.650;2024-03-08T04:17:13;26.33;;;10.90;;
18917;SDS011;9591;52.742;13.650;2024-03-08T04:20:01;31.80;;;11.70;;
18917;SDS011;9591;52.742;13.650;2024-03-08T04:22:53;25.83;;;10.73;;
18917;SDS011;9591;52.742;13.650;2024-03-08T04:25:40;25.27;;;10.57;;
18917;SDS011;9591;52.742;13.650;2024-03-08T04:28:30;26.53;;;11.10;;
18917;SDS011;9591;52.742;13.650;2024-03-08T04:31:26;26.23;;;8.43;;
18917;SDS011;9591;52.742;13.650;2024-03-08T04:34:23;23.00;;;10.17;;
18917;SDS011;9591;52.742;13.650;2024-03-08T04:37:18;30.07;;;10.13;;
18917;SDS011;9591;52.742;13.650;2024-03-08T04:40:07;30.10;;;10.80;;
18917;SDS011;9591;52.742;13.650;2024-03-08T04:42:56;30.90;;;12.20;;
18917;SDS011;9591;52.742;13.650;2024-03-08T04:45:57;29.63;;;10.80;;
18917;SDS011;9591;52.742;13.650;2024-03-08T04:48:44;28.00;;;11.33;;
18917;SDS011;9591;52.742;13.650;2024-03-08T04:51:35;31.00;;;11.77;;
18917;SDS011;9591;52.742;13.650;2024-03-08T04:54:52;28.23;;;11.53;;
18917;SDS011;9591;52.742;13.650;2024-03-08T04:57:46;31.50;;;12.17;;
18917;SDS011;9591;52.742;13.650;2024-03-08T05:00:33;30.67;;;11.37;;
18917;SDS011;9591;52.742;13.650;2024-03-08T05:03:24;28.13;;;10.93;;
18917;SDS011;9591;52.742;13.650;2024-03-08T05:06:14;31.37;;;11.63;;
18917;SDS011;9591;52.742;13.650;2024-03-08T05:09:13;23.80;;;10.70;;
18917;SDS011;9591;52.742;13.650;2024-03-08T05:12:08;28.67;;;10.77;;
18917;SDS011;9591;52.742;13.650;2024-03-08T05:14:56;30.33;;;11.60;;
18917;SDS011;9591;52.742;13.650;2024-03-08T05:17:55;21.50;;;10.40;;
18917;SDS011;9591;52.742;13.650;2024-03-08T05:20:44;22.00;;;10.43;;
18917;SDS011;9591;52.742;13.650;2024-03-08T05:23:33;27.80;;;12.03;;
18917;SDS011;9591;52.742;13.650;2024-03-08T05:26:23;31.40;;;10.87;;
18917;SDS011;9591;52.742;13.650;2024-03-08T05:29:19;30.23;;;12.97;;
18917;SDS011;9591;52.742;13.650;2024-03-08T05:32:09;36.87;;;14.57;;
18917;SDS011;9591;52.742;13.650;2024-03-08T05:34:58;36.87;;;14.57;;
18917;SDS011;9591;52.742;13.650;2024-03-08T05:37:45;36.60;;;13.23;;
18917;SDS011;9591;52.742;13.650;2024-03-08T05:40:32;35.83;;;13.57;;
18917;SDS011;9591;52.742;13.650;2024-03-08T05:43:19;39.67;;;14.93;;
18917;SDS011;9591;52.742;13.650;2024-03-08T05:46:08;34.97;;;14.73;;
18917;SDS011;9591;52.742;13.650;2024-03-08T05:48:57;30.80;;;13.13;;
18917;SDS011;9591;52.742;13.650;2024-03-08T05:51:45;38.33;;;13.97;;
18917;SDS011;9591;52.742;13.650;2024-03-08T05:54:35;37.93;;;13.90;;
18917;SDS011;9591;52.742;13.650;2024-03-08T06:00:35;38.77;;;13.60;;
18917;SDS011;9591;52.742;13.650;2024-03-08T06:03:31;32.73;;;14.67;;
18917;SDS011;9591;52.742;13.650;2024-03-08T06:06:23;34.80;;;13.90;;
18917;SDS011;9591;52.742;13.650;2024-03-08T06:09:14;36.30;;;14.80;;
18917;SDS011;9591;52.742;13.650;2024-03-08T06:12:12;37.47;;;14.67;;
18917;SDS011;9591;52.742;13.650;2024-03-08T06:15:05;38.13;;;13.67;;
18917;SDS011;9591;52.742;13.650;2024-03-08T06:17:55;38.37;;;13.50;;
18917;SDS011;9591;52.742;13.650;2024-03-08T06:20:48;36.93;;;12.63;;
18917;SDS011;9591;52.742;13.650;2024-03-08T06:23:41;27.50;;;11.43;;
18917;SDS011;9591;52.742;13.650;2024-03-08T06:26:28;35.80;;;12.07;;
18917;SDS011;9591;52.742;13.650;2024-03-08T06:29:18;30.00;;;12.10;;
18917;SDS011;9591;52.742;13.650;2024-03-08T06:32:09;32.40;;;14.53;;
18917;SDS011;9591;52.742;13.650;2024-03-08T06:34:58;34.60;;;13.57;;
18917;SDS011;9591;52.742;13.650;2024-03-08T06:37:48;30.40;;;12.33;;
18917;SDS011;9591;52.742;13.650;2024-03-08T06:40:35;28.17;;;10.57;;
18917;SDS011;9591;52.742;13.650;2024-03-08T06:43:24;33.93;;;12.30;;
18917;SDS011;9591;52.742;13.650;2024-03-08T06:46:21;32.83;;;13.13;;
18917;SDS011;9591;52.742;13.650;2024-03-08T06:49:11;36.93;;;12.37;;
18917;SDS011;9591;52.742;13.650;2024-03-08T06:52:03;30.87;;;11.73;;
18917;SDS011;9591;52.742;13.650;2024-03-08T06:54:54;26.23;;;11.43;;
18917;SDS011;9591;52.742;13.650;2024-03-08T06:57:49;31.27;;;13.00;;
18917;SDS011;9591;52.742;13.650;2024-03-08T07:00:47;27.83;;;11.43;;
18917;SDS011;9591;52.742;13.650;2024-03-08T07:03:37;35.07;;;13.03;;
18917;SDS011;9591;52.742;13.650;2024-03-08T07:06:31;37.87;;;15.73;;
18917;SDS011;9591;52.742;13.650;2024-03-08T07:09:28;41.43;;;18.07;;
18917;SDS011;9591;52.742;13.650;2024-03-08T07:12:19;51.53;;;20.27;;
18917;SDS011;9591;52.742;13.650;2024-03-08T07:15:13;66.00;;;24.00;;
18917;SDS011;9591;52.742;13.650;2024-03-08T07:18:00;49.60;;;21.23;;
18917;SDS011;9591;52.742;13.650;2024-03-08T07:20:51;40.60;;;16.27;;
18917;SDS011;9591;52.742;13.650;2024-03-08T07:23:39;43.90;;;16.47;;
18917;SDS011;9591;52.742;13.650;2024-03-08T07:26:58;37.27;;;15.57;;
18917;SDS011;9591;52.742;13.650;2024-03-08T07:29:49;36.90;;;14.63;;
18917;SDS011;9591;52.742;13.650;2024-03-08T07:32:52;34.73;;;13.73;;
18917;SDS011;9591;52.742;13.650;2024-03-08T07:35:41;34.20;;;14.20;;
18917;SDS011;9591;52.742;13.650;2024-03-08T07:38:32;33.63;;;13.77;;
18917;SDS011;9591;52.742;13.650;2024-03-08T07:41:20;41.00;;;15.33;;
18917;SDS011;9591;52.742;13.650;2024-03-08T07:44:08;34.20;;;13.63;;
18917;SDS011;9591;52.742;13.650;2024-03-08T07:47:04;46.70;;;17.30;;
18917;SDS011;9591;52.742;13.650;2024-03-08T07:49:55;44.90;;;16.73;;
18917;SDS011;9591;52.742;13.650;2024-03-08T07:52:50;40.63;;;14.67;;
18917;SDS011;9591;52.742;13.650;2024-03-08T07:55:37;42.17;;;16.17;;
18917;SDS011;9591;52.742;13.650;2024-03-08T07:58:26;39.83;;;15.20;;
18917;SDS011;9591;52.742;13.650;2024-03-08T08:01:19;35.53;;;13.77;;
18917;SDS011;9591;52.742;13.650;2024-03-08T08:04:13;47.63;;;15.43;;
18917;SDS011;9591;52.742;13.650;2024-03-08T08:07:04;34.53;;;15.43;;
18917;SDS011;9591;52.742;13.650;2024-03-08T08:10:01;35.67;;;15.50;;
18917;SDS011;9591;52.742;13.650;2024-03-08T08:12:51;45.13;;;16.83;;
18917;SDS011;9591;52.742;13.650;2024-03-08T08:15:41;36.93;;;14.67;;
18917;SDS011;9591;52.742;13.650;2024-03-08T08:18:31;38.97;;;14.53;;
18917;SDS011;9591;52.742;13.650;2024-03-08T08:21:22;32.03;;;13.60;;
18917;SDS011;9591;52.742;13.650;2024-03-08T08:24:12;34.73;;;14.53;;
18917;SDS011;9591;52.742;13.650;2024-03-08T08:27:01;35.50;;;13.57;;
18917;SDS011;9591;52.742;13.650;2024-03-08T08:29:48;34.50;;;14.33;;
18917;SDS011;9591;52.742;13.650;2024-03-08T08:32:37;35.80;;;15.23;;
18917;SDS011;9591;52.742;13.650;2024-03-08T08:35:27;32.53;;;13.43;;
18917;SDS011;9591;52.742;13.650;2024-03-08T08:38:29;27.93;;;11.97;;
18917;SDS011;9591;52.742;13.650;2024-03-08T08:41:19;33.20;;;13.87;;
18917;SDS011;9591;52.742;13.650;2024-03-08T08:44:07;40.67;;;15.77;;
18917;SDS011;9591;52.742;13.650;2024-03-08T08:47:01;39.20;;;14.83;;
18917;SDS011;9591;52.742;13.650;2024-03-08T08:49:57;38.73;;;13.77;;
18917;SDS011;9591;52.742;13.650;2024-03-08T08:52:46;27.30;;;12.00;;
18917;SDS011;9591;52.742;13.650;2024-03-08T08:55:51;29.33;;;11.73;;
18917;SDS011;9591;52.742;13.650;2024-03-08T08:58:40;29.67;;;12.40;;
18917;SDS011;9591;52.742;13.650;2024-03-08T09:01:30;29.17;;;12.90;;
18917;SDS011;9591;52.742;13.650;2024-03-08T09:04:19;34.93;;;12.87;;
18917;SDS011;9591;52.742;13.650;2024-03-08T09:07:12;25.63;;;11.00;;
18917;SDS011;9591;52.742;13.650;2024-03-08T09:10:02;31.17;;;11.43;;
18917;SDS011;9591;52.742;13.650;2024-03-08T09:13:03;28.63;;;12.27;;
18917;SDS011;9591;52.742;13.650;2024-03-08T09:16:08;27.23;;;11.43;;
18917;SDS011;9591;52.742;13.650;2024-03-08T09:18:58;30.77;;;11.97;;
18917;SDS011;9591;52.742;13.650;2024-03-08T09:21:46;21.47;;;10.87;;
18917;SDS011;9591;52.742;13.650;2024-03-08T09:24:33;27.40;;;10.73;;
18917;SDS011;9591;52.742;13.650;2024-03-08T09:27:23;28.47;;;11.27;;
18917;SDS011;9591;52.742;13.650;2024-03-08T09:30:14;29.93;;;11.77;;
18917;SDS011;9591;52.742;13.650;2024-03-08T09:33:04;25.43;;;12.00;;
18917;SDS011;9591;52.742;13.650;2024-03-08T09:35:51;20.53;;;10.20;;
18917;SDS011;9591;52.742;13.650;2024-03-08T09:38:49;26.43;;;10.33;;
18917;SDS011;9591;52.742;13.650;2024-03-08T09:41:36;27.63;;;11.83;;
18917;SDS011;9591;52.742;13.650;2024-03-08T09:44:27;29.27;;;10.67;;
18917;SDS011;9591;52.742;13.650;2024-03-08T09:47:19;26.37;;;10.97;;
18917;SDS011;9591;52.742;13.650;2024-03-08T09:50:17;25.77;;;9.87;;
18917;SDS011;9591;52.742;13.650;2024-03-08T09:53:13;28.63;;;11.03;;
18917;SDS011;9591;52.742;13.650;2024-03-08T09:56:07;28.87;;;11.93;;
18917;SDS011;9591;52.742;13.650;2024-03-08T09:58:58;28.30;;;11.50;;
18917;SDS011;9591;52.742;13.650;2024-03-08T10:01:58;29.53;;;11.20;;
18917;SDS011;9591;52.742;13.650;2024-03-08T10:04:51;31.33;;;12.17;;
18917;SDS011;9591;52.742;13.650;2024-03-08T10:07:51;31.27;;;11.93;;
18917;SDS011;9591;52.742;13.650;2024-03-08T10:10:43;26.23;;;11.10;;
18917;SDS011;9591;52.742;13.650;2024-03-08T10:13:30;31.67;;;11.63;;
18917;SDS011;9591;52.742;13.650;2024-03-08T10:16:26;28.20;;;11.93;;
18917;SDS011;9591;52.742;13.650;2024-03-08T10:19:15;32.73;;;12.03;;
18917;SDS011;9591;52.742;13.650;2024-03-08T10:22:06;33.47;;;12.47;;
18917;SDS011;9591;52.742;13.650;2024-03-08T10:25:27;34.50;;;11.83;;
18917;SDS011;9591;52.742;13.650;2024-03-08T10:28:18;26.20;;;11.43;;
18917;SDS011;9591;52.742;13.650;2024-03-08T10:31:10;28.83;;;11.23;;
18917;SDS011;9591;52.742;13.650;2024-03-08T10:34:00;31.20;;;12.17;;
18917;SDS011;9591;52.742;13.650;2024-03-08T10:36:52;30.17;;;10.57;;
18917;SDS011;9591;52.742;13.650;2024-03-08T10:39:49;26.47;;;10.77;;
18917;SDS011;9591;52.742;13.650;2024-03-08T10:43:02;25.03;;;10.43;;
18917;SDS011;9591;52.742;13.650;2024-03-08T10:45:51;20.83;;;7.73;;
18917;SDS011;9591;52.742;13.650;2024-03-08T10:49:00;25.17;;;11.33;;
18917;SDS011;9591;52.742;13.650;2024-03-08T10:51:51;24.93;;;12.07;;
18917;SDS011;9591;52.742;13.650;2024-03-08T10:54:40;28.17;;;11.07;;
18917;SDS011;9591;52.742;13.650;2024-03-08T10:57:31;20.93;;;10.33;;
18917;SDS011;9591;52.742;13.650;2024-03-08T11:00:21;23.97;;;11.20;;
18917;SDS011;9591;52.742;13.650;2024-03-08T11:06:44;29.50;;;12.03;;
18917;SDS011;9591;52.742;13.650;2024-03-08T11:09:41;26.70;;;11.87;;
18917;SDS011;9591;52.742;13.650;2024-03-08T11:15:39;36.37;;;13.10;;
18917;SDS011;9591;52.742;13.650;2024-03-08T11:18:26;33.17;;;13.83;;
18917;SDS011;9591;52.742;13.650;2024-03-08T11:21:15;27.90;;;10.80;;
18917;SDS011;9591;52.742;13.650;2024-03-08T11:24:08;34.00;;;14.17;;
18917;SDS011;9591;52.742;13.650;2024-03-08T11:27:05;20.67;;;9.97;;
18917;SDS011;9591;52.742;13.650;2024-03-08T11:30:11;35.93;;;11.37;;
18917;SDS011;9591;52.742;13.650;2024-03-08T11:33:11;31.53;;;13.90;;
18917;SDS011;9591;52.742;13.650;2024-03-08T11:36:05;27.13;;;11.77;;
18917;SDS011;9591;52.742;13.650;2024-03-08T11:39:24;23.63;;;10.53;;
18917;SDS011;9591;52.742;13.650;2024-03-08T11:42:16;26.97;;;11.47;;
18917;SDS011;9591;52.742;13.650;2024-03-08T11:45:18;21.87;;;10.00;;
18917;SDS011;9591;52.742;13.650;2024-03-08T11:48:08;37.03;;;11.00;;
18917;SDS011;9591;52.742;13.650;2024-03-08T11:50:58;23.47;;;10.27;;
18917;SDS011;9591;52.742;13.650;2024-03-08T11:53:52;23.97;;;11.37;;
18917;SDS011;9591;52.742;13.650;2024-03-08T11:56:44;22.77;;;9.00;;
18917;SDS011;9591;52.742;13.650;2024-03-08T11:59:49;23.37;;;9.50;;
18917;SDS011;9591;52.742;13.650;2024-03-08T12:03:03;28.43;;;11.73;;
18917;SDS011;9591;52.742;13.650;2024-03-08T12:05:57;21.80;;;9.60;;
18917;SDS011;9591;52.742;13.650;2024-03-08T12:08:46;29.00;;;10.93;;
18917;SDS011;9591;52.742;13.650;2024-03-08T12:11:39;25.63;;;10.37;;
18917;SDS011;9591;52.742;13.650;2024-03-08T12:14:31;21.47;;;10.17;;
18917;SDS011;9591;52.742;13.650;2024-03-08T12:17:18;22.83;;;10.03;;
18917;SDS011;9591;52.742;13.650;2024-03-08T12:20:18;25.83;;;9.57;;
18917;SDS011;9591;52.742;13.650;2024-03-08T12:23:07;26.30;;;10.70;;
18917;SDS011;9591;52.742;13.650;2024-03-08T12:29:25;23.87;;;10.70;;
18917;SDS011;9591;52.742;13.650;2024-03-08T12:32:14;23.67;;;10.73;;
18917;SDS011;9591;52.742;13.650;2024-03-08T12:35:25;21.30;;;10.43;;
18917;SDS011;9591;52.742;13.650;2024-03-08T12:38:55;24.73;;;10.47;;
18917;SDS011;9591;52.742;13.650;2024-03-08T12:41:46;22.30;;;10.73;;
18917;SDS011;9591;52.742;13.650;2024-03-08T12:44:37;23.40;;;10.60;;
18917;SDS011;9591;52.742;13.650;2024-03-08T12:47:37;27.00;;;10.57;;
18917;SDS011;9591;52.742;13.650;2024-03-08T12:50:27;23.93;;;10.40;;
18917;SDS011;9591;52.742;13.650;2024-03-08T12:53:15;22.70;;;10.30;;
18917;SDS011;9591;52.742;13.650;2024-03-08T12:56:05;24.63;;;10.97;;
18917;SDS011;9591;52.742;13.650;2024-03-08T12:58:55;25.57;;;11.37;;
18917;SDS011;9591;52.742;13.650;2024-03-08T13:01:43;26.77;;;11.43;;
18917;SDS011;9591;52.742;13.650;2024-03-08T13:04:32;24.67;;;10.67;;
18917;SDS011;9591;52.742;13.650;2024-03-08T13:07:25;22.40;;;8.70;;
18917;SDS011;9591;52.742;13.650;2024-03-08T13:10:16;23.43;;;10.70;;
18917;SDS011;9591;52.742;13.650;2024-03-08T13:13:05;24.83;;;11.17;;
18917;SDS011;9591;52.742;13.650;2024-03-08T13:15:57;26.80;;;11.70;;
18917;SDS011;9591;52.742;13.650;2024-03-08T13:18:46;25.43;;;10.47;;
18917;SDS011;9591;52.742;13.650;2024-03-08T13:21:45;27.27;;;11.33;;
18917;SDS011;9591;52.742;13.650;2024-03-08T13:24:36;25.07;;;10.53;;
18917;SDS011;9591;52.742;13.650;2024-03-08T13:27:26;24.20;;;10.83;;
18917;SDS011;9591;52.742;13.650;2024-03-08T13:30:13;26.37;;;10.97;;
18917;SDS011;9591;52.742;13.650;2024-03-08T13:33:04;29.23;;;12.03;;
18917;SDS011;9591;52.742;13.650;2024-03-08T13:35:53;29.23;;;12.20;;
18917;SDS011;9591;52.742;13.650;2024-03-08T13:38:50;28.50;;;11.27;;
18917;SDS011;9591;52.742;13.650;2024-03-08T13:41:40;28.33;;;11.63;;
18917;SDS011;9591;52.742;13.650;2024-03-08T13:44:30;24.03;;;10.77;;
18917;SDS011;9591;52.742;13.650;2024-03-08T13:47:19;24.67;;;11.37;;
18917;SDS011;9591;52.742;13.650;2024-03-08T13:50:06;25.53;;;11.47;;
18917;SDS011;9591;52.742;13.650;2024-03-08T13:53:09;25.27;;;10.97;;
18917;SDS011;9591;52.742;13.650;2024-03-08T13:55:57;28.27;;;11.93;;
18917;SDS011;9591;52.742;13.650;2024-03-08T13:58:47;24.67;;;10.63;;
18917;SDS011;9591;52.742;13.650;2024-03-08T14:01:37;23.27;;;10.63;;
18917;SDS011;9591;52.742;13.650;2024-03-08T14:04:24;23.27;;;10.83;;
18917;SDS011;9591;52.742;13.650;2024-03-08T14:07:15;27.00;;;11.00;;
18917;SDS011;9591;52.742;13.650;2024-03-08T14:10:05;28.33;;;11.83;;
18917;SDS011;9591;52.742;13.650;2024-03-08T14:13:02;25.70;;;11.20;;
18917;SDS011;9591;52.742;13.650;2024-03-08T14:15:51;22.63;;;10.37;;
18917;SDS011;9591;52.742;13.650;2024-03-08T14:18:38;22.80;;;10.83;;
18917;SDS011;9591;52.742;13.650;2024-03-08T14:21:27;23.70;;;10.90;;
18917;SDS011;9591;52.742;13.650;2024-03-08T14:24:15;23.43;;;10.40;;
18917;SDS011;9591;52.742;13.650;2024-03-08T14:27:05;23.33;;;11.20;;
18917;SDS011;9591;52.742;13.650;2024-03-08T14:29:56;25.00;;;11.23;;
18917;SDS011;9591;52.742;13.650;2024-03-08T14:32:47;24.57;;;10.80;;
18917;SDS011;9591;52.742;13.650;2024-03-08T14:35:41;24.57;;;10.73;;
18917;SDS011;9591;52.742;13.650;2024-03-08T14:38:28;24.37;;;10.83;;
18917;SDS011;9591;52.742;13.650;2024-03-08T14:41:19;23.03;;;9.63;;
18917;SDS011;9591;52.742;13.650;2024-03-08T14:44:07;22.23;;;9.83;;
18917;SDS011;9591;52.742;13.650;2024-03-08T14:46:54;22.30;;;10.53;;
18917;SDS011;9591;52.742;13.650;2024-03-08T14:49:50;22.33;;;10.63;;
18917;SDS011;9591;52.742;13.650;2024-03-08T14:52:42;40.63;;;10.77;;
18917;SDS011;9591;52.742;13.650;2024-03-08T14:55:29;21.43;;;9.97;;
18917;SDS011;9591;52.742;13.650;2024-03-08T14:58:24;24.30;;;9.77;;
18917;SDS011;9591;52.742;13.650;2024-03-08T15:01:16;23.83;;;10.30;;
18917;SDS011;9591;52.742;13.650;2024-03-08T15:04:08;23.83;;;9.80;;
18917;SDS011;9591;52.742;13.650;2024-03-08T15:07:03;21.57;;;9.90;;
18917;SDS011;9591;52.742;13.650;2024-03-08T15:09:56;21.60;;;10.03;;
18917;SDS011;9591;52.742;13.650;2024-03-08T15:12:46;21.20;;;10.10;;
18917;SDS011;9591;52.742;13.650;2024-03-08T15:15:37;22.67;;;9.80;;
18917;SDS011;9591;52.742;13.650;2024-03-08T15:18:28;18.20;;;9.10;;
18917;SDS011;9591;52.742;13.650;2024-03-08T15:21:20;22.00;;;9.77;;
18917;SDS011;9591;52.742;13.650;2024-03-08T15:24:15;17.40;;;9.37;;
18917;SDS011;9591;52.742;13.650;2024-03-08T15:27:09;19.70;;;9.20;;
18917;SDS011;9591;52.742;13.650;2024-03-08T15:29:56;24.70;;;10.50;;
18917;SDS011;9591;52.742;13.650;2024-03-08T15:32:44;22.13;;;9.43;;
18917;SDS011;9591;52.742;13.650;2024-03-08T15:35:34;21.77;;;9.07;;
18917;SDS011;9591;52.742;13.650;2024-03-08T15:38:25;17.70;;;8.20;;
18917;SDS011;9591;52.742;13.650;2024-03-08T15:41:17;21.07;;;9.03;;
18917;SDS011;9591;52.742;13.650;2024-03-08T15:44:08;21.13;;;9.37;;
18917;SDS011;9591;52.742;13.650;2024-03-08T15:47:04;20.23;;;8.93;;
18917;SDS011;9591;52.742;13.650;2024-03-08T15:49:54;22.77;;;8.97;;
18917;SDS011;9591;52.742;13.650;2024-03-08T15:52:43;22.17;;;9.50;;
18917;SDS011;9591;52.742;13.650;2024-03-08T15:58:56;29.00;;;9.20;;
18917;SDS011;9591;52.742;13.650;2024-03-08T16:01:44;17.80;;;8.50;;
18917;SDS011;9591;52.742;13.650;2024-03-08T16:04:38;15.50;;;7.93;;
18917;SDS011;9591;52.742;13.650;2024-03-08T16:07:25;21.67;;;8.47;;
18917;SDS011;9591;52.742;13.650;2024-03-08T16:10:12;19.53;;;8.90;;
18917;SDS011;9591;52.742;13.650;2024-03-08T16:13:00;17.93;;;8.53;;
18917;SDS011;9591;52.742;13.650;2024-03-08T16:15:53;15.33;;;8.40;;
18917;SDS011;9591;52.742;13.650;2024-03-08T16:18:44;17.30;;;8.30;;
18917;SDS011;9591;52.742;13.650;2024-03-08T16:21:31;17.00;;;8.00;;
18917;SDS011;9591;52.742;13.650;2024-03-08T16:24:18;19.50;;;8.30;;
18917;SDS011;9591;52.742;13.650;2024-03-08T16:27:07;18.43;;;8.77;;
18917;SDS011;9591;52.742;13.650;2024-03-08T16:29:59;14.57;;;7.17;;
18917;SDS011;9591;52.742;13.650;2024-03-08T16:32:49;16.70;;;7.83;;
18917;SDS011;9591;52.742;13.650;2024-03-08T16:35:39;20.47;;;8.47;;
18917;SDS011;9591;52.742;13.650;2024-03-08T16:38:31;18.00;;;8.67;;
18917;SDS011;9591;52.742;13.650;2024-03-08T16:41:26;17.03;;;8.30;;
18917;SDS011;9591;52.742;13.650;2024-03-08T16:44:14;14.53;;;8.10;;
18917;SDS011;9591;52.742;13.650;2024-03-08T16:47:19;18.40;;;7.93;;
18917;SDS011;9591;52.742;13.650;2024-03-08T16:50:21;22.07;;;8.73;;
18917;SDS011;9591;52.742;13.650;2024-03-08T16:53:16;16.37;;;7.87;;
18917;SDS011;9591;52.742;13.650;2024-03-08T16:56:07;18.77;;;8.03;;
18917;SDS011;9591;52.742;13.650;2024-03-08T16:59:01;17.87;;;9.20;;
18917;SDS011;9591;52.742;13.650;2024-03-08T17:01:49;13.90;;;7.80;;
18917;SDS011;9591;52.742;13.650;2024-03-08T17:04:48;17.10;;;8.10;;
18917;SDS011;9591;52.742;13.650;2024-03-08T17:07:36;20.97;;;9.00;;
18917;SDS011;9591;52.742;13.650;2024-03-08T17:10:23;20.53;;;7.70;;